Time;durP1;ratioP1;P1;durP2;ratioP2;P2;SDS_P1;SDS_P2;PMS_P1;PMS_P2;Temp;Humidity;BMP_temperature;BMP_pressure;BME280_temperature;BME280_humidity;BME280_pressure;Samples;Min_cycle;Max_cycle;Signal;HPM_P1;HPM_P2
2023/12/22 00:00:40;;;;;;;26.60;13.90;;;;;;;-147.86;100.00;46102.98;105631;1259;65689;-47
2023/12/22 00:03:07;;;;;;;29.00;14.10;;;;;;;-147.86;100.00;46102.20;105649;1254;72604;-46
2023/12/22 00:05:34;;;;;;;23.90;14.00;;;;;;;-147.86;100.00;46100.63;105649;1259;60371;-45
2023/12/22 00:08:02;;;;;;;31.40;17.10;;;;;;;-147.86;100.00;46102.98;105641;1256;60405;-43
2023/12/22 00:10:29;;;;;;;31.30;17.50;;;;;;;-147.86;100.00;46100.63;105646;1254;73836;-44
2023/12/22 00:12:56;;;;;;;28.30;15.60;;;;;;;-147.86;100.00;46102.20;105671;1256;65583;-44
2023/12/22 00:15:23;;;;;;;22.60;13.60;;;;;;;-147.86;100.00;46102.20;105611;1256;72853;-45
2023/12/22 00:17:50;;;;;;;22.80;12.40;;;;;;;-147.86;100.00;46101.41;105607;1259;60891;-47
2023/12/22 00:20:18;;;;;;;18.80;11.70;;;;;;;-147.86;100.00;46099.07;105623;1255;60544;-46
2023/12/22 00:22:46;;;;;;;21.30;12.80;;;;;;;-147.86;100.00;46101.02;105652;1259;73874;-45
2023/12/22 00:25:13;;;;;;;20.90;12.80;;;;;;;-147.86;100.00;46099.06;105615;1258;65374;-46
2023/12/22 00:27:40;;;;;;;26.80;12.70;;;;;;;-147.86;100.00;46099.46;105660;1256;72468;-45
2023/12/22 00:30:07;;;;;;;23.40;11.40;;;;;;;-147.86;100.00;46098.67;105605;1259;60918;-46
2023/12/22 00:32:34;;;;;;;18.10;12.00;;;;;;;-147.86;100.00;46097.50;105635;1256;60541;-44
2023/12/22 00:35:02;;;;;;;23.20;13.00;;;;;;;-147.86;100.00;46097.49;105392;1259;73777;-45
2023/12/22 00:37:29;;;;;;;22.80;12.90;;;;;;;-147.86;100.00;46099.46;105259;1259;65488;-42
2023/12/22 00:39:56;;;;;;;27.60;15.90;;;;;;;-147.86;100.00;46099.85;105378;1257;72771;-48
2023/12/22 00:42:25;;;;;;;29.70;16.80;;;;;;;-147.86;100.00;46096.32;105648;1259;61080;-43
2023/12/22 00:44:52;;;;;;;27.20;17.10;;;;;;;-147.86;100.00;46100.24;105663;1255;60456;-46
2023/12/22 00:47:19;;;;;;;28.90;16.80;;;;;;;-147.86;100.00;46099.46;105614;1258;73883;-47
2023/12/22 00:49:46;;;;;;;24.80;16.30;;;;;;;-147.86;100.00;46101.41;105593;1259;65471;-48
2023/12/22 00:52:13;;;;;;;27.60;16.20;;;;;;;-147.86;100.00;46098.67;105604;1256;72546;-45
2023/12/22 00:54:40;;;;;;;28.30;16.10;;;;;;;-147.86;100.00;46097.11;105636;1259;60432;-43
2023/12/22 00:57:07;;;;;;;24.50;15.30;;;;;;;-147.86;100.00;46097.89;105663;1257;60425;-43
2023/12/22 00:59:33;;;;;;;22.40;14.00;;;;;;;-147.86;100.00;46097.49;105648;1254;73836;-42
2023/12/22 01:02:01;;;;;;;28.00;16.30;;;;;;;-147.86;100.00;46096.32;105689;1259;64454;-44
2023/12/22 01:04:28;;;;;;;26.90;15.90;;;;;;;-147.86;100.00;46097.11;105660;1256;72594;-48
2023/12/22 01:06:55;;;;;;;28.50;17.10;;;;;;;-147.86;100.00;46095.54;105607;1259;61200;-46
2023/12/22 01:09:22;;;;;;;32.40;17.00;;;;;;;-147.86;100.00;46092.79;105634;1255;60450;-44
2023/12/22 01:11:49;;;;;;;25.00;16.20;;;;;;;-147.86;100.00;46095.54;105620;1257;73925;-47
2023/12/22 01:14:16;;;;;;;23.60;15.30;;;;;;;-147.86;100.00;46096.32;105610;1258;65482;-45
2023/12/22 01:16:42;;;;;;;23.30;14.10;;;;;;;-147.86;100.00;46097.49;105587;1259;72590;-45
2023/12/22 01:19:09;;;;;;;29.70;14.50;;;;;;;-147.86;100.00;46096.71;105663;1256;60948;-47
2023/12/22 01:21:36;;;;;;;27.30;15.30;;;;;;;-147.86;100.00;46097.50;105631;1259;60319;-45
2023/12/22 01:24:04;;;;;;;28.90;16.00;;;;;;;-147.86;100.00;46094.76;105605;1257;73810;-46
2023/12/22 01:26:31;;;;;;;26.60;15.70;;;;;;;-147.86;100.00;46094.76;105647;1260;65441;-45
2023/12/22 01:28:58;;;;;;;24.80;14.60;;;;;;;-147.86;100.00;46096.71;105625;1257;72366;-45
2023/12/22 01:31:25;;;;;;;30.20;14.90;;;;;;;-147.86;100.00;46094.36;105648;1259;61568;-44
2023/12/22 01:33:52;;;;;;;25.20;14.30;;;;;;;-147.86;100.00;46093.19;105639;1257;62460;-47
2023/12/22 01:36:19;;;;;;;22.80;13.60;;;;;;;-147.86;100.00;46093.97;105667;1259;73780;-46
2023/12/22 01:38:45;;;;;;;22.90;14.20;;;;;;;-147.86;100.00;46095.14;105595;1259;65602;-45
2023/12/22 01:41:13;;;;;;;30.90;15.30;;;;;;;-147.86;100.00;46093.97;105618;1256;72562;-46
2023/12/22 01:43:40;;;;;;;23.20;13.70;;;;;;;-147.86;100.00;46091.22;105680;1259;60905;-47
2023/12/22 01:46:08;;;;;;;26.00;14.60;;;;;;;-147.86;100.00;46092.79;105653;1256;60456;-48
2023/12/22 01:48:35;;;;;;;23.20;14.90;;;;;;;-147.86;100.00;46092.01;105667;1259;72902;-48
2023/12/22 01:51:02;;;;;;;22.20;13.90;;;;;;;-147.86;100.00;46095.14;105643;1259;65726;-45
2023/12/22 01:53:29;;;;;;;19.90;13.00;;;;;;;-147.86;100.00;46094.36;105634;1256;72488;-46
2023/12/22 01:55:56;;;;;;;25.80;13.10;;;;;;;-147.86;100.00;46092.79;105616;1259;60454;-44
2023/12/22 01:58:23;;;;;;;25.40;14.00;;;;;;;-147.86;100.00;46093.97;105650;1256;60549;-46
2023/12/22 02:00:52;;;;;;;26.50;14.30;;;;;;;-147.86;100.00;46093.57;105639;1256;72829;-41
2023/12/22 02:03:19;;;;;;;23.90;14.00;;;;;;;-147.86;100.00;46095.54;105710;1259;65454;-46
2023/12/22 02:05:46;;;;;;;24.50;14.20;;;;;;;-147.86;100.00;46092.40;105622;1257;71690;-46
2023/12/22 02:08:13;;;;;;;22.50;13.60;;;;;;;-147.86;100.00;46091.23;105610;1262;60425;-47
2023/12/22 02:10:40;;;;;;;24.00;13.90;;;;;;;-147.86;100.00;46094.36;105622;1257;60432;-44
2023/12/22 02:13:08;;;;;;;26.10;14.10;;;;;;;-147.86;100.00;46090.83;105400;1260;287706;-44
2023/12/22 02:15:35;;;;;;;23.90;13.70;;;;;;;-147.86;100.00;46090.05;105656;1259;64011;-47
2023/12/22 02:19:45;;;;;;;24.00;13.30;;;;;;;-147.86;100.00;46112.00;102716;1294;613469;-46
2023/12/22 02:22:12;;;;;;;20.10;13.60;;;;;;;-147.86;100.00;46106.51;104814;1272;60069;-43
2023/12/22 02:24:40;;;;;;;21.00;12.90;;;;;;;-147.86;100.00;46104.16;104894;1266;60139;-43
2023/12/22 02:27:17;;;;;;;20.00;12.90;;;;;;;-147.86;100.00;46097.49;104971;1269;70796;-42
2023/12/22 02:29:47;;;;;;;23.90;13.30;;;;;;;-147.86;100.00;46098.68;104975;1270;64052;-44
2023/12/22 02:32:23;;;;;;;21.50;13.70;;;;;;;-147.86;100.00;46095.14;104799;1270;198795;-44
2023/12/22 02:34:53;;;;;;;20.80;13.30;;;;;;;-147.86;100.00;46096.32;105251;1265;59529;-43
2023/12/22 02:37:20;;;;;;;22.40;13.00;;;;;;;-147.86;100.00;46092.79;105243;1267;59305;-47
2023/12/22 02:39:47;;;;;;;24.10;14.50;;;;;;;-147.86;100.00;46094.36;104924;1269;72321;-46
2023/12/22 02:42:14;;;;;;;23.70;13.80;;;;;;;-147.86;100.00;46092.01;105217;1267;65507;-44
2023/12/22 02:44:41;;;;;;;23.80;13.90;;;;;;;-147.86;100.00;46092.01;105100;1264;71516;-47
2023/12/22 02:47:08;;;;;;;19.70;12.50;;;;;;;-147.86;100.00;46091.62;105094;1268;60927;-44
2023/12/22 02:49:35;;;;;;;22.70;14.00;;;;;;;-147.86;100.00;46092.79;105199;1267;60249;-44
2023/12/22 02:52:01;;;;;;;25.00;13.50;;;;;;;-147.86;100.00;46093.57;105064;1268;72909;-44
2023/12/22 02:54:31;;;;;;;24.50;12.60;;;;;;;-147.86;100.00;46090.83;105055;1270;65470;-47
2023/12/22 02:57:00;;;;;;;25.50;12.90;;;;;;;-147.86;100.00;46094.36;105089;1264;72470;-46
2023/12/22 02:59:28;;;;;;;22.10;13.70;;;;;;;-147.86;100.00;46093.57;105072;1269;61135;-47
2023/12/22 03:01:55;;;;;;;23.30;13.80;;;;;;;-147.86;100.00;46091.23;105063;1264;60218;-42
2023/12/22 03:04:22;;;;;;;22.90;13.80;;;;;;;-147.86;100.00;46091.62;105532;1260;73077;-43
2023/12/22 03:06:49;;;;;;;22.20;12.90;;;;;;;-147.86;100.00;46090.44;105583;1260;65427;-44
2023/12/22 03:09:16;;;;;;;26.60;13.30;;;;;;;-147.86;100.00;46090.45;105583;1258;72574;-42
2023/12/22 03:11:43;;;;;;;23.70;12.40;;;;;;;-147.86;100.00;46090.44;105630;1270;59714;-44
2023/12/22 03:14:10;;;;;;;19.90;12.30;;;;;;;-147.86;100.00;46088.09;105587;1257;60030;-43
2023/12/22 03:16:37;;;;;;;23.90;13.30;;;;;;;-147.86;100.00;46092.01;105599;1260;73039;-43
2023/12/22 03:19:07;;;;;;;22.70;14.10;;;;;;;-147.86;100.00;46089.66;105611;1260;65523;-44
2023/12/22 03:21:34;;;;;;;27.00;15.60;;;;;;;-147.86;100.00;46090.05;105597;1257;71262;-45
2023/12/22 03:24:01;;;;;;;25.50;14.10;;;;;;;-147.86;100.00;46088.09;105570;1257;61047;-46
2023/12/22 03:26:28;;;;;;;23.20;13.70;;;;;;;-147.86;100.00;46087.70;105568;1258;60302;-45
2023/12/22 03:28:55;;;;;;;22.90;14.20;;;;;;;-147.86;100.00;46087.70;105574;1260;72825;-45
2023/12/22 03:31:21;;;;;;;20.80;13.40;;;;;;;-147.86;100.00;46089.66;105605;1261;65435;-45
2023/12/22 03:33:48;;;;;;;22.20;14.30;;;;;;;-147.86;100.00;46088.48;105581;1258;72679;-42
2023/12/22 03:36:15;;;;;;;27.70;16.50;;;;;;;-147.86;100.00;46088.87;105604;1258;60812;-47
2023/12/22 03:38:42;;;;;;;25.50;15.60;;;;;;;-147.86;100.00;46087.31;105556;1257;60157;-45
2023/12/22 03:41:09;;;;;;;24.40;15.40;;;;;;;-147.86;100.00;46088.09;105549;1260;73139;-43
2023/12/22 03:43:36;;;;;;;24.60;15.10;;;;;;;-147.86;100.00;46089.27;105545;1261;65346;-45
2023/12/22 03:46:03;;;;;;;24.00;14.50;;;;;;;-147.86;100.00;46088.87;105568;1260;72446;-43
2023/12/22 03:48:30;;;;;;;21.00;12.80;;;;;;;-147.86;100.00;46089.66;105572;1260;59619;-44
2023/12/22 03:50:57;;;;;;;24.10;14.40;;;;;;;-147.86;100.00;46084.57;105650;1257;61280;-46
2023/12/22 03:53:25;;;;;;;23.00;14.70;;;;;;;-147.86;100.00;46087.70;105527;1260;72843;-45
2023/12/22 03:55:52;;;;;;;21.50;13.20;;;;;;;-147.86;100.00;46089.66;105564;1258;65353;-43
2023/12/22 03:58:19;;;;;;;23.40;13.40;;;;;;;-147.86;100.00;46086.13;105604;1257;72789;-45
2023/12/22 04:00:46;;;;;;;25.70;14.10;;;;;;;-147.86;100.00;46084.17;105548;1261;59735;-47
2023/12/22 04:03:13;;;;;;;19.40;13.20;;;;;;;-147.86;100.00;46084.18;105605;1257;60484;-45
2023/12/22 04:05:40;;;;;;;23.60;13.70;;;;;;;-147.86;100.00;46084.56;105577;1260;72986;-44
2023/12/22 04:08:07;;;;;;;24.40;13.40;;;;;;;-147.86;100.00;46084.96;105572;1260;65485;-43
2023/12/22 04:10:34;;;;;;;21.50;14.50;;;;;;;-147.86;100.00;46085.74;105608;1260;71646;-45
2023/12/22 04:13:02;;;;;;;17.90;12.00;;;;;;;-147.86;100.00;46084.96;105613;1260;61169;-45
2023/12/22 04:15:29;;;;;;;20.50;12.50;;;;;;;-147.86;100.00;46084.18;105602;1256;60023;-45
2023/12/22 04:17:56;;;;;;;22.60;12.60;;;;;;;-147.86;100.00;46084.56;105577;1260;73275;-42
2023/12/22 04:20:24;;;;;;;18.50;12.70;;;;;;;-147.86;100.00;46087.70;105567;1260;65462;-43
2023/12/22 04:22:51;;;;;;;24.60;13.70;;;;;;;-147.86;100.00;46087.30;105648;1258;71220;-48
2023/12/22 04:25:18;;;;;;;20.70;12.70;;;;;;;-147.86;100.00;46085.74;105545;1256;61134;-42
2023/12/22 04:27:45;;;;;;;23.10;14.00;;;;;;;-147.86;100.00;46085.74;105642;1257;60268;-43
2023/12/22 04:30:13;;;;;;;21.80;13.90;;;;;;;-147.86;100.00;46083.00;105621;1257;73104;-46
2023/12/22 04:32:40;;;;;;;26.20;14.00;;;;;;;-147.86;100.00;46086.91;105635;1260;65558;-43
2023/12/22 04:35:07;;;;;;;18.80;12.50;;;;;;;-147.86;100.00;46083.78;105604;1258;72696;-44
2023/12/22 04:37:34;;;;;;;25.00;14.70;;;;;;;-147.86;100.00;46086.13;105628;1256;61166;-48
2023/12/22 04:40:01;;;;;;;20.60;13.00;;;;;;;-147.86;100.00;46086.52;105606;1256;60300;-43
2023/12/22 04:42:29;;;;;;;22.50;12.50;;;;;;;-147.86;100.00;46085.35;105656;1256;73372;-42
2023/12/22 04:44:55;;;;;;;18.70;12.80;;;;;;;-147.86;100.00;46085.35;105591;1260;65372;-44
2023/12/22 04:47:23;;;;;;;22.60;14.70;;;;;;;-147.86;100.00;46086.52;105569;1260;72551;-44
2023/12/22 04:49:49;;;;;;;24.60;14.30;;;;;;;-147.86;100.00;46083.78;105577;1257;61278;-43
2023/12/22 04:52:16;;;;;;;24.00;13.20;;;;;;;-147.86;100.00;46084.96;105637;1257;60321;-44
2023/12/22 04:54:43;;;;;;;23.90;14.30;;;;;;;-147.86;100.00;46083.39;105571;1257;72974;-46
2023/12/22 04:57:10;;;;;;;21.20;13.50;;;;;;;-147.86;100.00;46084.17;105570;1260;65446;-45
2023/12/22 04:59:37;;;;;;;25.20;14.60;;;;;;;-147.86;100.00;46084.96;105565;1257;72835;-41
2023/12/22 05:02:04;;;;;;;24.00;12.90;;;;;;;-147.86;100.00;46085.74;105579;1261;59635;-44
2023/12/22 05:04:31;;;;;;;24.40;14.60;;;;;;;-147.86;100.00;46084.96;105641;1257;60273;-43
2023/12/22 05:06:58;;;;;;;24.00;13.80;;;;;;;-147.86;100.00;46085.74;105598;1260;72977;-43
2023/12/22 05:09:25;;;;;;;21.60;13.60;;;;;;;-147.86;100.00;46083.78;105637;1260;65439;-44
2023/12/22 05:11:52;;;;;;;22.30;14.10;;;;;;;-147.86;100.00;46086.13;105587;1256;72559;-42
2023/12/22 05:14:19;;;;;;;24.10;14.80;;;;;;;-147.86;100.00;46083.39;105572;1261;61075;-46
2023/12/22 05:16:46;;;;;;;24.90;15.00;;;;;;;-147.86;100.00;46086.52;105557;1260;60405;-45
2023/12/22 05:19:12;;;;;;;30.40;16.10;;;;;;;-147.86;100.00;46086.52;105578;1260;72984;-42
2023/12/22 05:21:39;;;;;;;25.00;15.50;;;;;;;-147.86;100.00;46085.35;105596;1260;65468;-48
2023/12/22 05:24:06;;;;;;;23.70;14.90;;;;;;;-147.86;100.00;46086.13;105659;1257;72725;-47
2023/12/22 05:26:33;;;;;;;22.80;14.70;;;;;;;-147.86;100.00;46084.96;105561;1261;61055;-43
2023/12/22 05:29:00;;;;;;;32.40;16.60;;;;;;;-147.86;100.00;46084.96;105593;1257;60268;-46
2023/12/22 05:31:27;;;;;;;25.70;16.10;;;;;;;-147.86;100.00;46086.91;105564;1257;72898;-45
2023/12/22 05:33:54;;;;;;;26.20;15.70;;;;;;;-147.86;100.00;46084.96;105579;1256;65476;-45
2023/12/22 05:36:21;;;;;;;22.50;15.50;;;;;;;-147.86;100.00;46085.35;105568;1256;72534;-44
2023/12/22 05:38:48;;;;;;;28.80;16.80;;;;;;;-147.86;100.00;46082.21;105620;1260;60868;-43
2023/12/22 05:41:15;;;;;;;26.30;16.30;;;;;;;-147.86;100.00;46085.35;105634;1257;60279;-44
2023/12/22 05:43:42;;;;;;;29.20;17.00;;;;;;;-147.86;100.00;46084.18;105611;1260;73004;-46
2023/12/22 05:46:09;;;;;;;29.10;16.80;;;;;;;-147.86;100.00;46084.17;105554;1260;65595;-43
2023/12/22 05:48:36;;;;;;;27.50;17.60;;;;;;;-147.86;100.00;46083.78;105564;1256;72762;-41
2023/12/22 05:51:07;;;;;;;33.50;18.20;;;;;;;-147.86;100.00;46086.52;105543;1260;61176;-45
2023/12/22 05:53:34;;;;;;;32.90;16.90;;;;;;;-147.86;100.00;46084.57;105603;1260;60361;-45
2023/12/22 05:56:01;;;;;;;29.60;16.50;;;;;;;-147.86;100.00;46084.18;105867;1257;72865;-43
2023/12/22 05:58:28;;;;;;;31.10;16.00;;;;;;;-147.86;100.00;46085.35;105904;1257;65277;-42
2023/12/22 06:00:55;;;;;;;24.50;14.90;;;;;;;-147.86;100.00;46084.56;105850;1253;72518;-46
2023/12/22 06:03:22;;;;;;;30.30;15.70;;;;;;;-147.86;100.00;46081.82;105866;1257;61134;-46
2023/12/22 06:05:50;;;;;;;28.30;16.50;;;;;;;-147.86;100.00;46083.39;105852;1252;60085;-47
2023/12/22 06:08:17;;;;;;;25.20;15.90;;;;;;;-147.86;100.00;46085.35;105885;1254;73008;-42
2023/12/22 06:10:44;;;;;;;27.60;14.70;;;;;;;-147.86;100.00;46084.17;105824;1257;65417;-45
2023/12/22 06:13:12;;;;;;;30.50;15.50;;;;;;;-147.86;100.00;46083.39;105914;1254;72709;-43
2023/12/22 06:15:39;;;;;;;24.20;13.90;;;;;;;-147.86;100.00;46083.78;105867;1257;59492;-49
2023/12/22 06:18:06;;;;;;;23.50;14.50;;;;;;;-147.86;100.00;46084.56;105915;1253;60208;-46
2023/12/22 06:20:33;;;;;;;24.90;14.50;;;;;;;-147.86;100.00;46084.17;105890;1253;73007;-46
2023/12/22 06:23:00;;;;;;;22.60;13.10;;;;;;;-147.86;100.00;46084.18;105859;1257;65612;-46
2023/12/22 06:25:27;;;;;;;26.50;13.70;;;;;;;-147.86;100.00;46084.56;105857;1253;72497;-47
2023/12/22 06:27:54;;;;;;;17.80;11.40;;;;;;;-147.86;100.00;46084.18;105901;1253;60996;-42
2023/12/22 06:30:21;;;;;;;20.40;12.80;;;;;;;-147.86;100.00;46084.17;105875;1253;60486;-46
2023/12/22 06:32:48;;;;;;;17.90;9.90;;;;;;;-147.86;100.00;46085.35;105873;1257;73801;-45
2023/12/22 06:35:15;;;;;;;16.40;10.30;;;;;;;-147.86;100.00;46083.78;105940;1257;65395;-45
2023/12/22 06:37:44;;;;;;;15.60;10.00;;;;;;;-147.86;100.00;46082.21;105857;1253;72560;-46
2023/12/22 06:40:11;;;;;;;15.20;10.60;;;;;;;-147.86;100.00;46082.61;105843;1256;60422;-44
2023/12/22 06:42:38;;;;;;;16.10;10.20;;;;;;;-147.86;100.00;46080.64;105881;1253;60170;-44
2023/12/22 06:45:06;;;;;;;15.90;10.10;;;;;;;-147.86;100.00;46085.35;105905;1253;73758;-45
2023/12/22 06:47:33;;;;;;;15.20;10.60;;;;;;;-147.86;100.00;46083.78;105621;1256;64865;-46
2023/12/22 06:50:00;;;;;;;16.70;10.40;;;;;;;-147.86;100.00;46084.17;105620;1252;72588;-43
2023/12/22 06:52:28;;;;;;;15.10;10.20;;;;;;;-147.86;100.00;46083.00;105652;1257;61194;-47
2023/12/22 06:54:55;;;;;;;14.30;9.50;;;;;;;-147.86;100.00;46083.00;105889;1253;60447;-47
2023/12/22 06:57:22;;;;;;;17.70;10.50;;;;;;;-147.86;100.00;46084.17;105867;1257;73842;-48
2023/12/22 06:59:51;;;;;;;16.00;9.40;;;;;;;-147.86;100.00;46084.17;105869;1257;65457;-50
2023/12/22 07:02:19;;;;;;;15.90;10.90;;;;;;;-147.86;100.00;46084.96;105869;1256;71146;-50
2023/12/22 07:05:09;;;;;;;13.30;9.80;;;;;;;-147.86;100.00;46084.96;105835;1256;62259;-44
2023/12/22 07:07:37;;;;;;;17.60;10.40;;;;;;;-147.86;100.00;46085.74;105916;1253;60412;-50
2023/12/22 07:10:05;;;;;;;13.80;9.90;;;;;;;-147.86;100.00;46086.52;105828;1254;73804;-53
2023/12/22 07:12:32;;;;;;;15.60;9.80;;;;;;;-147.86;100.00;46084.57;105862;1256;65502;-48
2023/12/22 07:14:59;;;;;;;16.10;10.40;;;;;;;-147.86;100.00;46084.56;105825;1253;72486;-51
2023/12/22 07:17:26;;;;;;;17.20;10.40;;;;;;;-147.86;100.00;46085.74;105887;1256;60523;-51
2023/12/22 07:19:57;;;;;;;13.50;9.20;;;;;;;-147.86;100.00;46085.34;105921;1253;60474;-53
2023/12/22 07:22:24;;;;;;;19.20;10.40;;;;;;;-147.86;100.00;46083.39;105846;1256;73902;-52
2023/12/22 07:24:52;;;;;;;14.40;9.30;;;;;;;-147.86;100.00;46085.35;105894;1257;64694;-49
2023/12/22 07:27:19;;;;;;;15.20;9.20;;;;;;;-147.86;100.00;46083.78;105907;1252;72640;-50
2023/12/22 07:29:46;;;;;;;13.70;9.30;;;;;;;-147.86;100.00;46085.74;105887;1252;60432;-47
2023/12/22 07:32:13;;;;;;;13.40;9.20;;;;;;;-147.86;100.00;46083.00;105807;1253;60720;-50
2023/12/22 07:34:41;;;;;;;15.20;10.20;;;;;;;-147.86;100.00;46081.43;105910;1253;72623;-47
2023/12/22 07:37:09;;;;;;;16.30;10.20;;;;;;;-147.86;100.00;46084.57;105873;1256;64569;-56
2023/12/22 07:39:36;;;;;;;14.10;9.60;;;;;;;-147.86;100.00;46087.70;105896;1253;73044;-52
2023/12/22 07:42:06;;;;;;;17.40;11.50;;;;;;;-147.86;100.00;46086.52;105856;1257;61089;-55
2023/12/22 07:44:33;;;;;;;15.70;11.20;;;;;;;-147.86;100.00;46084.56;105929;1253;60440;-49
2023/12/22 07:47:00;;;;;;;19.30;11.80;;;;;;;-147.86;100.00;46084.18;105864;1252;73811;-51
2023/12/22 07:49:29;;;;;;;19.00;11.60;;;;;;;-147.86;100.00;46084.18;105881;1257;64685;-54
2023/12/22 07:51:58;;;;;;;20.30;12.30;;;;;;;-147.86;100.00;46082.21;105867;1257;71190;-54
2023/12/22 07:54:25;;;;;;;18.40;12.50;;;;;;;-147.86;100.00;46085.35;105891;1253;60526;-52
2023/12/22 07:56:52;;;;;;;18.10;11.90;;;;;;;-147.86;100.00;46083.78;105881;1253;60431;-50
2023/12/22 07:59:19;;;;;;;25.30;12.70;;;;;;;-147.86;100.00;46086.91;105883;1257;73811;-47
2023/12/22 08:01:57;;;;;;;24.40;13.20;;;;;;;-147.86;100.00;46086.13;105830;1257;64556;-55
2023/12/22 08:04:24;;;;;;;18.30;11.50;;;;;;;-147.86;100.00;46084.96;105903;1253;72689;-49
2023/12/22 08:06:52;;;;;;;17.60;11.70;;;;;;;-147.86;100.00;46083.00;105866;1257;61069;-51
2023/12/22 08:09:19;;;;;;;16.40;11.30;;;;;;;-147.86;100.00;46085.35;105880;1253;60440;-52
2023/12/22 08:11:52;;;;;;;19.90;12.10;;;;;;;-147.86;100.00;46087.30;105913;1254;73722;-51
2023/12/22 08:14:19;;;;;;;17.50;12.20;;;;;;;-147.86;100.00;46087.30;105861;1257;64543;-53
2023/12/22 08:16:46;;;;;;;19.50;11.70;;;;;;;-147.86;100.00;46083.00;105883;1253;72493;-54
2023/12/22 08:19:13;;;;;;;18.40;11.90;;;;;;;-147.86;100.00;46087.30;105815;1253;61112;-49
2023/12/22 08:21:42;;;;;;;20.70;12.70;;;;;;;-147.86;100.00;46085.74;105917;1253;60480;-53
2023/12/22 08:24:13;;;;;;;17.90;11.60;;;;;;;-147.86;100.00;46085.35;105868;1253;71418;-52
2023/12/22 08:26:49;;;;;;;22.30;13.00;;;;;;;-147.86;100.00;46085.74;105861;1257;64653;-54
2023/12/22 08:29:19;;;;;;;20.20;12.50;;;;;;;-147.86;100.00;46085.74;105864;1253;71231;-52
2023/12/22 08:31:46;;;;;;;24.90;13.60;;;;;;;-147.86;100.00;46087.30;105864;1252;61025;-53
2023/12/22 08:34:13;;;;;;;22.10;12.70;;;;;;;-147.86;100.00;46084.96;105692;1253;60525;-52
2023/12/22 08:36:40;;;;;;;21.50;14.30;;;;;;;-147.86;100.00;46088.88;105865;1253;73620;-52
2023/12/22 08:39:07;;;;;;;24.20;14.40;;;;;;;-147.86;100.00;46085.35;105885;1257;64624;-52
2023/12/22 08:41:37;;;;;;;25.50;14.80;;;;;;;-147.86;100.00;46085.74;105870;1253;72526;-50
2023/12/22 08:44:04;;;;;;;30.40;16.60;;;;;;;-147.86;100.00;46087.31;105881;1257;60359;-51
2023/12/22 08:46:32;;;;;;;22.70;15.00;;;;;;;-147.86;100.00;46090.45;105851;1252;60536;-49
2023/12/22 08:48:59;;;;;;;26.60;16.40;;;;;;;-147.86;100.00;46088.09;105928;1253;73820;-50
2023/12/22 08:51:27;;;;;;;27.30;15.80;;;;;;;-147.86;100.00;46088.48;105864;1257;64616;-56
2023/12/22 08:53:57;;;;;;;28.30;15.20;;;;;;;-147.86;100.00;46088.48;105897;1253;72630;-55
2023/12/22 08:56:24;;;;;;;26.30;15.60;;;;;;;-147.86;100.00;46086.52;105873;1257;60399;-53
2023/12/22 08:58:51;;;;;;;27.80;15.80;;;;;;;-147.86;100.00;46087.70;105871;1253;60523;-52
2023/12/22 09:01:19;;;;;;;28.90;15.60;;;;;;;-147.86;100.00;46087.70;105881;1256;73695;-51
2023/12/22 09:03:46;;;;;;;23.70;14.50;;;;;;;-147.86;100.00;46084.96;105896;1257;64663;-51
2023/12/22 09:06:20;;;;;;;25.70;15.40;;;;;;;-147.86;100.00;46086.13;105901;1253;72650;-55
2023/12/22 09:08:47;;;;;;;25.70;14.90;;;;;;;-147.86;100.00;46088.88;105837;1256;60976;-54
2023/12/22 09:11:16;;;;;;;25.80;14.60;;;;;;;-147.86;100.00;46089.27;105907;1253;61389;-49
2023/12/22 09:13:43;;;;;;;19.20;13.10;;;;;;;-147.86;100.00;46089.66;105837;1253;72730;-50
2023/12/22 09:16:11;;;;;;;21.20;13.30;;;;;;;-147.86;100.00;46088.09;105873;1256;64798;-56
2023/12/22 09:18:38;;;;;;;19.60;12.30;;;;;;;-147.86;100.00;46089.27;105852;1253;73085;-57
2023/12/22 09:21:05;;;;;;;16.30;11.90;;;;;;;-147.86;100.00;46090.83;105876;1253;62200;-56
2023/12/22 09:23:33;;;;;;;17.50;11.80;;;;;;;-147.86;100.00;46088.09;105883;1253;60521;-50
2023/12/22 09:26:00;;;;;;;19.60;12.50;;;;;;;-147.86;100.00;46090.45;105869;1257;73805;-49
2023/12/22 09:28:27;;;;;;;22.20;12.50;;;;;;;-147.86;100.00;46090.05;105881;1257;64773;-52
2023/12/22 09:30:54;;;;;;;20.70;12.30;;;;;;;-147.86;100.00;46089.66;105840;1252;72668;-48
2023/12/22 09:33:22;;;;;;;19.80;12.10;;;;;;;-147.86;100.00;46086.91;105899;1257;61233;-51
2023/12/22 09:35:50;;;;;;;19.50;12.10;;;;;;;-147.86;100.00;46088.88;105883;1253;60417;-53
2023/12/22 09:38:18;;;;;;;22.00;12.00;;;;;;;-147.86;100.00;46092.01;105873;1257;73970;-53
2023/12/22 09:40:45;;;;;;;18.30;11.60;;;;;;;-147.86;100.00;46090.45;105866;1257;64746;-51
2023/12/22 09:43:12;;;;;;;18.60;11.30;;;;;;;-147.86;100.00;46090.05;105827;1252;72312;-51
2023/12/22 09:45:39;;;;;;;23.30;12.70;;;;;;;-147.86;100.00;46088.48;105744;1257;61094;-55
2023/12/22 09:48:06;;;;;;;18.80;12.10;;;;;;;-147.86;100.00;46090.05;105884;1253;60457;-54
2023/12/22 09:50:34;;;;;;;19.60;12.90;;;;;;;-147.86;100.00;46090.45;105854;1256;74081;-49
2023/12/22 09:53:00;;;;;;;15.30;11.40;;;;;;;-147.86;100.00;46088.09;105721;1253;64680;-52
2023/12/22 09:55:28;;;;;;;18.50;11.80;;;;;;;-147.86;100.00;46091.62;105675;1253;73756;-53
2023/12/22 09:57:56;;;;;;;18.90;12.30;;;;;;;-147.86;100.00;46093.19;105882;1256;60401;-49
2023/12/22 10:00:22;;;;;;;19.20;12.50;;;;;;;-147.86;100.00;46092.01;105814;1253;60531;-53
2023/12/22 10:02:49;;;;;;;18.40;11.60;;;;;;;-147.86;100.00;46090.05;105714;1254;73683;-56
2023/12/22 10:05:18;;;;;;;18.20;12.00;;;;;;;-147.86;100.00;46086.91;105844;1257;64775;-50
2023/12/22 10:07:46;;;;;;;19.60;11.80;;;;;;;-147.86;100.00;46088.88;105864;1253;73747;-54
2023/12/22 10:10:14;;;;;;;17.40;11.60;;;;;;;-147.86;100.00;46091.23;105890;1253;61105;-56
2023/12/22 10:12:41;;;;;;;16.30;11.30;;;;;;;-147.86;100.00;46089.66;105700;1253;60636;-54
2023/12/22 10:15:09;;;;;;;21.30;12.90;;;;;;;-147.86;100.00;46090.05;105922;1257;72653;-51
2023/12/22 10:17:36;;;;;;;21.00;12.20;;;;;;;-147.86;100.00;46092.79;105878;1253;62668;-53
2023/12/22 10:20:04;;;;;;;16.50;11.70;;;;;;;-147.86;100.00;46092.40;105653;1253;73920;-56
2023/12/22 10:22:31;;;;;;;18.80;11.80;;;;;;;-147.86;100.00;46090.83;105870;1253;60610;-52
2023/12/22 10:24:58;;;;;;;16.40;10.90;;;;;;;-147.86;100.00;46092.01;105801;1257;60426;-51
2023/12/22 10:27:25;;;;;;;18.10;10.30;;;;;;;-147.86;100.00;46093.57;105807;1253;73650;-50
2023/12/22 10:29:55;;;;;;;24.20;10.90;;;;;;;-147.86;100.00;46093.18;105810;1257;66210;-54
2023/12/22 10:32:23;;;;;;;20.20;11.80;;;;;;;-147.86;100.00;46095.54;105862;1253;74202;-53
2023/12/22 10:34:53;;;;;;;14.80;10.30;;;;;;;-147.86;100.00;46095.15;105827;1256;60417;-57
2023/12/22 10:37:21;;;;;;;18.40;10.40;;;;;;;-147.86;100.00;46097.11;105831;1253;60478;-55
2023/12/22 10:39:49;;;;;;;16.00;10.40;;;;;;;-147.86;100.00;46095.54;105886;1254;75185;-54
2023/12/22 10:42:16;;;;;;;13.00;9.60;;;;;;;-147.86;100.00;46094.36;105687;1253;66016;-51
2023/12/22 10:44:43;;;;;;;16.10;11.20;;;;;;;-147.86;100.00;46097.49;105663;1253;71697;-52
2023/12/22 10:47:10;;;;;;;16.30;10.60;;;;;;;-147.86;100.00;46093.97;105686;1257;60347;-52
2023/12/22 10:49:37;;;;;;;16.70;10.50;;;;;;;-147.86;100.00;46094.75;105828;1256;61053;-55